Time;durP1;ratioP1;P1;durP2;ratioP2;P2;SDS_P1;SDS_P2;PMS_P1;PMS_P2;Temp;Humidity;BMP_temperature;BMP_pressure;BME280_temperature;BME280_humidity;BME280_pressure;Samples;Min_cycle;Max_cycle;Signal;HPM_P1;HPM_P2
2022/09/15 00:02:13;;;;;;;1.88;1.73;;;;;;;13.81;39.78;99457.50;5071831;28;20056;-76
2022/09/15 00:04:39;;;;;;;3.58;2.10;;;;;;;13.82;40.12;99459.19;5055041;28;20052;-75
2022/09/15 00:07:05;;;;;;;1.90;1.70;;;;;;;13.77;39.86;99445.34;5072696;28;20044;-75
2022/09/15 00:09:31;;;;;;;2.85;1.80;;;;;;;13.79;39.85;99452.25;5038381;28;20388;-75
2022/09/15 00:11:57;;;;;;;3.30;1.70;;;;;;;13.89;39.25;99465.69;5071546;28;20052;-76
2022/09/15 00:14:23;;;;;;;3.80;1.70;;;;;;;13.90;39.54;99467.38;5071648;28;20048;-76
2022/09/15 00:16:49;;;;;;;2.00;1.67;;;;;;;13.93;39.04;99466.25;5055184;28;20067;-76
2022/09/15 00:19:14;;;;;;;2.00;1.58;;;;;;;13.95;38.93;99464.25;5071689;28;20071;-76
2022/09/15 00:21:41;;;;;;;2.47;1.63;;;;;;;14.00;38.83;99462.88;5072779;28;20491;-77
2022/09/15 00:24:08;;;;;;;2.15;1.58;;;;;;;14.05;38.89;99462.44;5071441;28;20040;-76
2022/09/15 00:26:35;;;;;;;4.07;1.67;;;;;;;14.02;38.74;99455.50;5071899;28;20047;-76
2022/09/15 00:29:02;;;;;;;3.55;1.48;;;;;;;14.11;38.69;99456.50;5038275;28;20040;-75
2022/09/15 00:31:30;;;;;;;4.88;1.50;;;;;;;14.09;38.73;99456.63;5054943;28;20529;-77
2022/09/15 00:33:58;;;;;;;1.98;1.73;;;;;;;14.12;38.36;99460.03;5054698;28;20499;-75
2022/09/15 00:36:25;;;;;;;3.72;1.40;;;;;;;14.09;38.39;99456.63;5054912;28;20467;-75
2022/09/15 00:38:51;;;;;;;2.08;1.40;;;;;;;14.05;38.49;99451.69;5071491;28;20140;-76
2022/09/15 00:41:19;;;;;;;1.90;1.73;;;;;;;14.05;38.47;99443.63;5071610;28;20393;-75
2022/09/15 00:44:05;;;;;;;3.15;1.90;;;;;;;14.07;38.67;99444.34;5054597;28;20036;-76
2022/09/15 00:46:40;;;;;;;2.00;1.70;;;;;;;13.92;38.30;99427.78;5071243;28;20055;-76
2022/09/15 00:49:13;;;;;;;3.30;2.00;;;;;;;13.91;38.74;99427.91;5071183;28;20047;-75
2022/09/15 00:52:04;;;;;;;5.07;1.75;;;;;;;14.01;38.70;99435.00;5041933;28;20052;-75
2022/09/15 00:54:37;;;;;;;2.38;1.92;;;;;;;14.01;38.65;99442.22;5058933;28;20036;-75
2022/09/15 00:57:10;;;;;;;5.03;2.20;;;;;;;13.98;38.49;99431.75;5076684;28;20048;-76
2022/09/15 00:59:39;;;;;;;2.15;1.95;;;;;;;13.94;38.34;99435.69;5077336;28;20494;-75
2022/09/15 01:02:12;;;;;;;3.00;1.80;;;;;;;13.93;38.48;99424.09;5041657;28;20392;-76
2022/09/15 01:04:38;;;;;;;3.38;2.13;;;;;;;13.95;38.74;99421.25;5075269;28;20040;-76
2022/09/15 01:07:08;;;;;;;2.85;2.28;;;;;;;13.90;38.43;99426.22;5058380;28;20518;-76
2022/09/15 01:09:44;;;;;;;3.13;1.73;;;;;;;13.95;38.50;99423.94;5074990;28;20093;-75
2022/09/15 01:12:10;;;;;;;1.77;1.67;;;;;;;13.96;38.14;99428.34;5058894;28;20495;-76
2022/09/15 01:14:36;;;;;;;13.40;2.13;;;;;;;13.95;37.97;99421.25;5074729;28;20067;-75
2022/09/15 01:17:03;;;;;;;2.42;2.03;;;;;;;13.91;38.12;99426.06;5074756;28;20085;-76
2022/09/15 01:19:44;;;;;;;2.38;1.83;;;;;;;13.93;38.12;99434.00;5057990;28;20051;-76
2022/09/15 01:22:24;;;;;;;3.50;1.80;;;;;;;13.89;38.37;99422.69;5075573;28;20070;-76
2022/09/15 01:25:15;;;;;;;3.83;1.60;;;;;;;13.87;37.86;99421.13;5041703;28;20407;-75
2022/09/15 01:27:59;;;;;;;2.20;1.58;;;;;;;13.85;37.88;99415.91;5074672;28;20102;-75
2022/09/15 01:30:26;;;;;;;2.13;1.52;;;;;;;13.81;37.92;99425.25;5076042;28;20139;-75
2022/09/15 01:33:34;;;;;;;2.55;1.60;;;;;;;13.74;38.04;99422.28;5074870;28;20048;-76
2022/09/15 01:36:09;;;;;;;4.13;1.83;;;;;;;13.68;38.44;99425.50;5073856;28;20044;-76
2022/09/15 01:38:55;;;;;;;2.45;1.60;;;;;;;13.64;38.36;99424.09;5076024;28;20062;-76
2022/09/15 01:41:41;;;;;;;2.58;1.77;;;;;;;13.64;38.40;99428.63;5040999;28;20070;-76
2022/09/15 01:44:12;;;;;;;6.95;1.80;;;;;;;13.62;38.57;99419.88;5074202;28;20037;-76
2022/09/15 01:46:51;;;;;;;1.95;1.70;;;;;;;13.61;38.17;99424.38;5074136;28;20399;-76
2022/09/15 01:49:21;;;;;;;5.80;1.88;;;;;;;13.55;38.22;99407.00;5074839;28;20253;-76
2022/09/15 01:51:50;;;;;;;4.15;1.92;;;;;;;13.64;38.32;99412.50;5057575;28;20063;-76
2022/09/15 01:54:21;;;;;;;2.58;1.75;;;;;;;13.66;38.16;99408.69;5074114;28;20059;-77
2022/09/15 01:56:47;;;;;;;2.72;1.90;;;;;;;13.72;38.00;99410.81;5057195;28;20040;-76
2022/09/15 01:59:12;;;;;;;5.07;2.30;;;;;;;13.74;38.36;99411.53;5057207;28;20502;-77
2022/09/15 02:01:48;;;;;;;5.50;2.05;;;;;;;13.69;38.39;99403.06;5057143;28;20101;-75
2022/09/15 02:04:45;;;;;;;2.13;1.90;;;;;;;13.68;38.23;99398.66;5073977;28;20602;-77
2022/09/15 02:07:19;;;;;;;7.22;1.85;;;;;;;13.72;38.24;99405.44;5073885;28;20048;-76
2022/09/15 02:10:00;;;;;;;4.53;1.80;;;;;;;13.76;38.16;99406.84;5074852;28;20147;-76
2022/09/15 02:12:32;;;;;;;4.82;1.83;;;;;;;13.82;37.95;99403.59;5040879;28;20542;-76
2022/09/15 02:15:09;;;;;;;4.20;1.42;;;;;;;13.87;37.60;99407.69;5073892;28;20048;-76
2022/09/15 02:17:41;;;;;;;4.38;1.88;;;;;;;13.95;37.57;99405.97;5074922;28;20492;-76
2022/09/15 02:20:16;;;;;;;6.20;2.03;;;;;;;13.95;37.51;99394.41;5073368;28;20064;-76
2022/09/15 02:22:52;;;;;;;3.70;2.05;;;;;;;14.13;37.92;99403.44;5073878;28;20040;-76
2022/09/15 02:25:37;;;;;;;5.55;1.70;;;;;;;14.18;37.72;99395.78;5073372;28;20059;-75
2022/09/15 02:28:07;;;;;;;4.18;1.52;;;;;;;14.28;37.27;99396.59;5073386;28;20079;-76
2022/09/15 02:30:39;;;;;;;4.18;1.60;;;;;;;14.38;37.25;99395.75;5073071;28;20045;-76
2022/09/15 02:33:10;;;;;;;7.50;2.00;;;;;;;14.37;36.99;99377.91;5074065;28;20044;-76
2022/09/15 02:35:38;;;;;;;3.65;1.70;;;;;;;14.48;37.07;99394.72;5073206;28;20051;-75
2022/09/15 02:38:07;;;;;;;11.00;1.92;;;;;;;14.49;37.18;99380.31;5072848;28;20491;-75
2022/09/15 02:40:35;;;;;;;4.32;1.80;;;;;;;14.63;37.07;99381.69;5072874;28;20048;-76
2022/09/15 02:43:02;;;;;;;3.63;2.20;;;;;;;14.66;36.67;99378.69;5074275;28;20052;-76
2022/09/15 02:45:32;;;;;;;2.92;2.10;;;;;;;14.70;36.96;99388.16;5072900;28;20049;-76
2022/09/15 02:47:58;;;;;;;13.23;2.25;;;;;;;14.79;36.68;99379.19;5056620;28;20107;-75
2022/09/15 02:50:25;;;;;;;4.78;2.47;;;;;;;14.73;36.62;99374.41;5072501;28;20037;-80
2022/09/15 02:52:52;;;;;;;20.60;2.45;;;;;;;14.76;37.04;99374.09;5072566;28;20048;-79
2022/09/15 02:55:18;;;;;;;11.25;2.45;;;;;;;14.88;36.48;99371.22;5072645;28;20189;-80
2022/09/15 02:57:44;;;;;;;14.55;2.40;;;;;;;14.93;36.36;99364.41;5072880;28;20126;-78
2022/09/15 03:00:12;;;;;;;8.65;2.47;;;;;;;14.90;36.38;99363.84;5073832;28;20098;-78
2022/09/15 03:02:49;;;;;;;6.10;2.17;;;;;;;14.97;36.35;99360.41;5073916;28;20048;-79
2022/09/15 03:05:18;;;;;;;9.80;2.15;;;;;;;15.05;36.09;99362.34;5088435;28;20044;-77
2022/09/15 03:07:44;;;;;;;6.85;2.20;;;;;;;15.18;36.30;99361.97;5092610;28;20036;-75
2022/09/15 03:10:11;;;;;;;11.05;1.88;;;;;;;15.20;36.05;99358.16;5088705;28;20048;-79
2022/09/15 03:12:43;;;;;;;11.50;1.83;;;;;;;15.25;36.24;99358.53;5055001;28;20044;-78
2022/09/15 03:15:11;;;;;;;6.28;1.90;;;;;;;15.26;36.28;99337.81;5073915;28;20040;-78
2022/09/15 03:17:43;;;;;;;6.63;2.00;;;;;;;15.38;36.14;99349.22;5055703;28;20081;-82
2022/09/15 03:20:12;;;;;;;9.40;1.80;;;;;;;15.38;36.19;99341.13;5055483;28;20495;-76
2022/09/15 03:22:38;;;;;;;20.90;2.17;;;;;;;15.29;36.35;99340.22;5055551;28;20040;-80
2022/09/15 03:25:05;;;;;;;7.85;2.67;;;;;;;15.33;36.54;99346.16;5056108;28;20400;-80
2022/09/15 03:27:32;;;;;;;3.65;1.80;;;;;;;15.34;35.62;99339.75;5055877;28;20037;-79
2022/09/15 03:29:59;;;;;;;5.95;1.60;;;;;;;15.35;36.34;99325.31;5055628;28;20117;-77
2022/09/15 03:32:25;;;;;;;7.82;1.90;;;;;;;15.41;35.82;99340.84;5073332;28;20127;-77
2022/09/15 03:34:50;;;;;;;6.72;2.10;;;;;;;15.50;35.95;99340.78;5084461;28;20043;-80
2022/09/15 03:37:16;;;;;;;6.38;1.95;;;;;;;15.65;35.78;99338.41;5055258;28;20072;-78
2022/09/15 03:39:42;;;;;;;7.38;2.25;;;;;;;15.78;35.57;99344.22;5071984;28;20521;-78
2022/09/15 03:42:09;;;;;;;14.80;2.30;;;;;;;15.88;35.71;99343.31;5055271;28;20040;-77
2022/09/15 03:44:35;;;;;;;8.55;2.13;;;;;;;15.97;35.68;99342.34;5055277;28;20040;-78
2022/09/15 03:47:02;;;;;;;4.25;2.15;;;;;;;16.02;35.66;99329.25;5073044;28;20101;-82
2022/09/15 03:49:28;;;;;;;5.43;2.40;;;;;;;16.15;35.10;99326.13;5055112;28;20033;-79
2022/09/15 03:51:54;;;;;;;8.27;2.45;;;;;;;16.21;35.00;99331.75;5072492;28;20095;-77
2022/09/15 03:54:20;;;;;;;4.35;2.55;;;;;;;16.26;34.81;99337.50;5072811;28;20090;-81
2022/09/15 03:56:47;;;;;;;8.27;2.67;;;;;;;16.15;34.99;99335.06;5071731;28;20495;-78
2022/09/15 03:59:15;;;;;;;15.15;2.92;;;;;;;16.24;35.30;99336.81;5072606;28;20119;-78
2022/09/15 04:01:41;;;;;;;5.30;2.30;;;;;;;16.26;35.51;99334.81;5072758;28;20183;-76
2022/09/15 04:04:07;;;;;;;7.88;2.53;;;;;;;16.23;34.79;99312.69;5071732;28;20135;-78
2022/09/15 04:06:34;;;;;;;4.55;2.20;;;;;;;16.31;34.71;99325.38;5072833;28;20075;-79
2022/09/15 04:09:00;;;;;;;5.50;2.10;;;;;;;16.34;34.71;99306.19;5055617;28;20560;-78
2022/09/15 04:11:26;;;;;;;8.35;2.42;;;;;;;16.43;34.17;99313.31;5072554;28;20064;-78
2022/09/15 04:13:53;;;;;;;14.45;2.35;;;;;;;16.65;34.72;99317.28;5071652;28;20051;-78
2022/09/15 04:16:24;;;;;;;7.82;2.10;;;;;;;16.68;33.82;99309.72;5054833;28;20051;-78
2022/09/15 04:18:51;;;;;;;7.68;2.58;;;;;;;16.87;34.16;99314.03;5086328;28;20086;-79
2022/09/15 04:21:20;;;;;;;14.18;2.50;;;;;;;16.93;33.67;99304.44;5086292;28;20048;-85
2022/09/15 04:23:47;;;;;;;5.95;2.42;;;;;;;16.69;33.99;99300.59;5074270;28;20046;-80
2022/09/15 04:26:27;;;;;;;4.65;1.92;;;;;;;16.82;34.01;99302.06;5074600;28;20064;-81
2022/09/15 04:28:53;;;;;;;7.22;2.35;;;;;;;17.06;33.93;99302.09;5074625;28;20050;-79
2022/09/15 04:31:19;;;;;;;5.88;2.28;;;;;;;17.17;33.42;99304.50;5074634;28;20122;-79
2022/09/15 04:33:46;;;;;;;9.15;2.45;;;;;;;17.33;33.00;99298.25;5058218;28;20044;-77
2022/09/15 04:36:15;;;;;;;12.35;2.05;;;;;;;17.37;33.32;99298.78;5071784;28;20139;-79
2022/09/15 04:38:42;;;;;;;8.52;2.13;;;;;;;17.37;33.08;99298.78;5038488;28;20056;-79
2022/09/15 04:41:09;;;;;;;9.38;2.40;;;;;;;17.31;33.07;99285.97;5037867;28;20101;-79
2022/09/15 04:43:35;;;;;;;5.18;2.08;;;;;;;17.33;33.11;99292.03;5054472;28;20044;-78
2022/09/15 04:46:01;;;;;;;11.82;2.65;;;;;;;17.38;33.22;99295.09;5070845;28;20032;-79
2022/09/15 04:48:27;;;;;;;6.50;2.17;;;;;;;17.30;32.89;99287.81;5072124;28;20499;-79
2022/09/15 04:50:53;;;;;;;4.20;2.72;;;;;;;17.39;33.04;99277.84;5038135;28;20041;-77
2022/09/15 04:53:19;;;;;;;11.40;2.28;;;;;;;17.25;33.31;99276.66;5072239;28;20044;-77
2022/09/15 04:55:45;;;;;;;7.65;2.50;;;;;;;17.28;33.42;99270.91;5037878;28;20522;-79
2022/09/15 04:58:14;;;;;;;6.22;2.63;;;;;;;17.42;33.28;99280.22;5072540;28;20047;-78
2022/09/15 05:00:44;;;;;;;10.23;2.30;;;;;;;17.51;32.49;99276.50;5072724;28;20045;-77
2022/09/15 05:03:12;;;;;;;4.20;2.30;;;;;;;17.70;33.03;99272.59;5071414;28;20104;-79
2022/09/15 05:05:40;;;;;;;4.70;2.70;;;;;;;17.78;32.59;99269.91;5072173;28;20044;-78
2022/09/15 05:08:07;;;;;;;13.90;2.80;;;;;;;17.79;32.22;99268.06;5070896;28;20134;-79
2022/09/15 05:10:33;;;;;;;5.32;3.10;;;;;;;17.69;32.01;99266.34;5037712;28;20071;-79
2022/09/15 05:12:59;;;;;;;7.60;2.30;;;;;;;17.80;31.72;99258.94;5054695;28;20527;-81
2022/09/15 05:15:25;;;;;;;9.73;3.05;;;;;;;17.77;31.53;99264.69;5071891;28;20048;-80
2022/09/15 05:17:51;;;;;;;9.50;2.70;;;;;;;17.72;31.70;99257.91;5071721;28;20044;-79
2022/09/15 05:20:17;;;;;;;5.22;2.60;;;;;;;17.76;31.58;99258.44;5062232;28;20550;-81
2022/09/15 05:22:43;;;;;;;4.82;2.50;;;;;;;17.98;31.16;99251.50;5071623;28;20033;-85
2022/09/15 05:25:10;;;;;;;9.95;2.08;;;;;;;18.11;31.09;99253.63;5071020;28;20041;-78
2022/09/15 05:27:38;;;;;;;7.13;2.70;;;;;;;17.99;30.85;99244.22;5072181;28;20041;-82
2022/09/15 05:30:05;;;;;;;7.95;2.33;;;;;;;17.92;30.72;99242.19;5073050;28;20144;-81
2022/09/15 05:32:31;;;;;;;7.15;2.33;;;;;;;18.04;31.00;99242.66;5072063;28;20418;-80
2022/09/15 05:34:57;;;;;;;9.32;3.30;;;;;;;18.23;30.88;99240.59;5070616;28;20048;-80
2022/09/15 05:37:23;;;;;;;5.70;2.60;;;;;;;18.36;30.44;99230.06;5074258;28;20124;-80
2022/09/15 05:39:49;;;;;;;12.85;3.17;;;;;;;18.65;30.82;99232.97;5056246;28;20042;-80
2022/09/15 05:42:14;;;;;;;7.70;3.40;;;;;;;18.73;29.91;99242.06;5055934;28;20109;-82
2022/09/15 05:44:40;;;;;;;7.78;3.83;;;;;;;18.63;30.41;99232.28;5074471;28;20080;-83
2022/09/15 05:47:06;;;;;;;8.35;2.78;;;;;;;18.53;30.28;99215.41;5073710;28;20040;-83
2022/09/15 05:49:32;;;;;;;13.27;3.75;;;;;;;18.81;30.36;99228.53;5056202;28;20037;-83
2022/09/15 05:51:59;;;;;;;8.68;2.83;;;;;;;18.73;29.78;99213.16;5072871;28;20044;-82
2022/09/15 05:54:26;;;;;;;10.43;2.83;;;;;;;18.75;29.52;99213.81;5075627;28;20048;-83
2022/09/15 05:56:52;;;;;;;5.43;2.70;;;;;;;18.90;29.40;99211.19;5057403;28;20080;-83
2022/09/15 05:59:17;;;;;;;4.43;2.60;;;;;;;18.82;29.21;99208.53;5074434;28;20075;-81
2022/09/15 06:01:43;;;;;;;3.72;2.35;;;;;;;18.74;29.28;99205.88;5075151;28;20045;-81
2022/09/15 06:04:09;;;;;;;7.20;2.55;;;;;;;18.81;29.15;99198.72;5074300;28;20530;-82
2022/09/15 06:06:35;;;;;;;11.63;2.67;;;;;;;19.00;28.86;99206.38;5074603;28;20056;-81
2022/09/15 06:09:04;;;;;;;10.85;2.97;;;;;;;19.21;28.79;99207.56;5041917;28;20064;-82
2022/09/15 06:11:34;;;;;;;5.47;2.00;;;;;;;19.29;28.87;99197.50;5057532;28;20483;-82
2022/09/15 06:14:04;;;;;;;5.75;2.40;;;;;;;19.31;28.29;99175.66;5057208;28;20040;-82
2022/09/15 06:16:33;;;;;;;7.85;2.42;;;;;;;19.44;28.69;99175.84;5073288;28;20047;-82
2022/09/15 06:19:00;;;;;;;10.67;2.63;;;;;;;19.62;28.53;99180.97;5073628;28;20062;-81
2022/09/15 06:21:28;;;;;;;8.57;2.92;;;;;;;19.65;28.24;99167.88;5075522;28;20283;-81
2022/09/15 06:23:55;;;;;;;7.63;2.90;;;;;;;19.53;28.34;99179.34;5057058;28;20468;-80
2022/09/15 06:26:22;;;;;;;9.57;2.70;;;;;;;19.46;28.32;99172.97;5074690;28;20119;-80
2022/09/15 06:28:51;;;;;;;10.75;2.65;;;;;;;19.65;28.27;99183.31;5074880;28;20036;-82
2022/09/15 06:31:17;;;;;;;10.95;2.95;;;;;;;19.62;28.26;99179.09;5074627;28;20045;-83
2022/09/15 06:33:46;;;;;;;7.28;3.00;;;;;;;19.65;28.29;99178.72;5075070;28;20526;-84
2022/09/15 06:36:14;;;;;;;9.57;3.63;;;;;;;19.50;28.36;99174.28;5074078;28;20041;-84
2022/09/15 06:38:41;;;;;;;9.50;3.55;;;;;;;19.56;28.68;99182.53;5072960;28;20048;-84
2022/09/15 06:41:08;;;;;;;7.88;3.67;;;;;;;19.70;28.33;99169.19;5074520;28;20056;-84
2022/09/15 06:43:35;;;;;;;7.50;3.63;;;;;;;19.74;28.20;99165.91;5056824;28;20049;-83
2022/09/15 06:46:09;;;;;;;6.03;2.75;;;;;;;19.95;28.13;99161.66;5039533;28;20415;-84
2022/09/15 06:48:37;;;;;;;5.93;2.83;;;;;;;19.99;27.88;99152.94;5072162;28;20135;-82
2022/09/15 06:51:04;;;;;;;9.85;2.60;;;;;;;20.37;27.70;99163.66;5056601;28;20052;-84
2022/09/15 06:53:31;;;;;;;5.03;2.42;;;;;;;20.36;27.63;99156.53;5057158;28;20057;-84
2022/09/15 06:56:12;;;;;;;4.60;1.88;;;;;;;20.38;27.42;99151.75;5076752;28;20109;-83
2022/09/15 06:58:40;;;;;;;12.65;2.10;;;;;;;20.22;27.11;99133.81;5040541;28;20555;-84
2022/09/15 07:01:08;;;;;;;5.70;2.03;;;;;;;20.33;27.66;99143.34;5074968;28;20090;-84
2022/09/15 07:03:35;;;;;;;11.20;2.10;;;;;;;20.45;27.42;99152.66;5073849;28;20071;-82
2022/09/15 07:06:02;;;;;;;7.15;2.15;;;;;;;20.34;27.48;99142.31;5072958;28;20044;-84
2022/09/15 07:08:28;;;;;;;5.10;2.13;;;;;;;20.39;27.49;99134.44;5072681;28;20071;-83
2022/09/15 07:10:55;;;;;;;6.07;2.17;;;;;;;20.21;27.56;99139.44;5072392;28;20040;-81
2022/09/15 07:13:21;;;;;;;8.50;2.10;;;;;;;20.37;27.70;99134.63;5073581;28;20052;-82
2022/09/15 07:15:56;;;;;;;6.13;2.65;;;;;;;20.59;27.75;99121.97;5073387;28;20054;-82
2022/09/15 07:18:23;;;;;;;14.70;3.80;;;;;;;20.82;27.35;99127.22;5073525;28;20040;-82
2022/09/15 07:20:49;;;;;;;11.50;2.65;;;;;;;21.11;27.53;99109.09;5073077;28;20088;-83
2022/09/15 07:23:16;;;;;;;10.60;3.63;;;;;;;21.42;26.87;99111.44;5072872;28;20044;-81
2022/09/15 07:25:44;;;;;;;10.02;3.33;;;;;;;21.55;26.66;99122.44;5072541;28;20043;-82
2022/09/15 07:28:14;;;;;;;8.50;4.22;;;;;;;21.45;26.63;99119.22;5072213;28;20036;-81
2022/09/15 07:30:41;;;;;;;8.48;4.10;;;;;;;21.47;26.52;99108.94;5055568;28;20040;-81
2022/09/15 07:33:12;;;;;;;8.93;4.82;;;;;;;21.45;26.02;99110.22;5073431;28;20040;-81
2022/09/15 07:35:42;;;;;;;10.13;4.47;;;;;;;21.68;25.60;99104.50;5073278;28;20057;-81
2022/09/15 07:38:08;;;;;;;12.82;3.92;;;;;;;21.69;25.35;99106.16;5073055;28;20044;-81
2022/09/15 07:40:34;;;;;;;4.65;2.50;;;;;;;21.50;24.50;99108.56;5072233;28;20052;-82
2022/09/15 07:42:59;;;;;;;11.70;2.17;;;;;;;21.65;24.62;99085.84;5056319;28;20205;-81
2022/09/15 07:45:25;;;;;;;9.10;2.13;;;;;;;21.96;24.44;99090.81;5072225;28;20539;-82
2022/09/15 07:47:51;;;;;;;4.30;2.08;;;;;;;22.06;24.46;99096.75;5073087;28;20048;-81
2022/09/15 07:50:17;;;;;;;12.85;2.75;;;;;;;22.21;24.44;99091.19;5072486;28;20040;-82
2022/09/15 07:52:43;;;;;;;4.50;2.33;;;;;;;22.06;23.88;99089.41;5038977;28;20086;-80
2022/09/15 07:55:09;;;;;;;13.00;2.00;;;;;;;21.76;24.26;99090.72;5055302;28;20036;-82
2022/09/15 07:57:36;;;;;;;5.18;2.40;;;;;;;21.41;24.49;99092.63;5038687;28;20056;-81
2022/09/15 08:00:06;;;;;;;8.73;1.75;;;;;;;21.70;24.55;99096.97;5055784;28;20041;-81
2022/09/15 08:02:38;;;;;;;3.45;1.85;;;;;;;21.79;23.90;99084.91;5072621;28;20572;-81
2022/09/15 08:05:04;;;;;;;5.82;1.48;;;;;;;21.63;24.41;99075.19;5072918;28;20415;-81
2022/09/15 08:07:30;;;;;;;1.63;1.40;;;;;;;21.67;24.26;99075.63;5073601;28;20087;-82
2022/09/15 08:09:56;;;;;;;12.75;2.15;;;;;;;21.77;24.22;99076.06;5071906;28;20044;-80
2022/09/15 08:12:22;;;;;;;6.97;1.27;;;;;;;21.48;24.05;99052.72;5055168;28;20462;-82
2022/09/15 08:14:51;;;;;;;4.18;1.15;;;;;;;21.57;24.02;99071.38;5073117;28;20071;-82
2022/09/15 08:17:19;;;;;;;5.05;1.20;;;;;;;21.68;24.12;99075.41;5073362;28;20510;-82
2022/09/15 08:19:45;;;;;;;8.35;1.33;;;;;;;21.77;23.81;99071.47;5072144;28;20052;-82
2022/09/15 08:22:14;;;;;;;6.97;1.48;;;;;;;21.76;23.95;99063.53;5071664;28;20376;-83
2022/09/15 08:24:40;;;;;;;9.55;1.30;;;;;;;21.73;23.93;99063.91;5055527;28;20040;-82
2022/09/15 08:27:06;;;;;;;4.13;1.10;;;;;;;21.87;24.14;99071.13;5071485;28;20148;-81
2022/09/15 08:29:31;;;;;;;7.68;1.98;;;;;;;21.93;24.24;99067.59;5073197;28;20131;-81
2022/09/15 08:31:57;;;;;;;2.80;1.33;;;;;;;22.07;23.98;99061.13;5071460;28;20037;-82
2022/09/15 08:34:23;;;;;;;2.17;1.50;;;;;;;22.14;23.69;99060.38;5054996;28;20510;-80
2022/09/15 08:36:49;;;;;;;3.15;1.52;;;;;;;22.35;24.03;99060.22;5071422;28;20132;-80
2022/09/15 08:39:15;;;;;;;5.93;2.53;;;;;;;22.69;23.87;99058.41;5054871;28;20138;-80
2022/09/15 08:41:52;;;;;;;3.50;1.80;;;;;;;23.15;23.54;99065.78;5037850;28;20063;-81
2022/09/15 08:44:37;;;;;;;2.47;1.53;;;;;;;23.35;23.10;99063.03;5054868;28;20049;-82
2022/09/15 08:47:12;;;;;;;8.77;1.70;;;;;;;23.86;23.05;99060.41;5038435;28;20046;-82
2022/09/15 08:49:42;;;;;;;8.98;1.90;;;;;;;23.97;22.55;99048.81;5039033;28;20044;-82
2022/09/15 08:52:22;;;;;;;7.65;1.98;;;;;;;24.25;22.34;99047.63;5054761;28;20099;-82
2022/09/15 08:54:52;;;;;;;14.73;1.80;;;;;;;24.49;22.22;99043.34;5071850;28;20044;-82
2022/09/15 08:57:22;;;;;;;12.98;2.13;;;;;;;24.64;21.33;99045.75;5073010;28;20131;-81
2022/09/15 08:59:48;;;;;;;11.93;1.80;;;;;;;24.40;21.25;99045.47;5071426;28;20052;-79
2022/09/15 09:02:26;;;;;;;7.78;1.42;;;;;;;24.25;21.32;99025.78;5072409;28;20451;-82
2022/09/15 09:05:08;;;;;;;5.13;1.40;;;;;;;24.32;21.36;99042.97;5071704;28;20052;-83
2022/09/15 09:07:43;;;;;;;7.22;1.52;;;;;;;24.55;21.15;99030.66;5071252;28;20295;-81
2022/09/15 09:10:18;;;;;;;7.40;1.60;;;;;;;24.92;20.97;99032.47;5021565;28;20098;-84
2022/09/15 09:13:02;;;;;;;7.57;1.20;;;;;;;24.93;20.97;99028.69;5075684;28;20131;-83
2022/09/15 09:16:06;;;;;;;4.53;1.38;;;;;;;24.95;20.83;99020.28;5076344;28;20047;-83
2022/09/15 09:18:50;;;;;;;6.45;1.35;;;;;;;24.76;20.91;99016.66;5058393;28;20036;-84
2022/09/15 09:21:38;;;;;;;7.10;1.45;;;;;;;24.36;21.13;98999.66;5075896;28;20040;-83
2022/09/15 09:24:04;;;;;;;;;;;;;;;24.33;21.35;98994.63;5094324;28;20089;-82
2022/09/15 09:26:35;;;;;;;5.75;1.50;;;;;;;23.77;21.69;98990.75;5078205;28;19922;-79
2022/09/15 09:29:09;;;;;;;10.48;1.98;;;;;;;23.65;22.09;98997.88;5091083;28;20037;-85
2022/09/15 09:31:36;;;;;;;5.82;1.70;;;;;;;23.91;22.34;99003.28;5075591;28;20098;-84
2022/09/15 09:34:14;;;;;;;6.15;2.05;;;;;;;23.94;22.25;98991.09;5091837;28;20181;-82
2022/09/15 09:36:39;;;;;;;2.97;1.50;;;;;;;24.18;21.87;98989.47;5082423;28;20048;-80
2022/09/15 09:39:12;;;;;;;4.93;1.83;;;;;;;24.34;22.13;98986.25;5075894;28;20517;-89
2022/09/15 09:41:40;;;;;;;2.65;1.70;;;;;;;24.45;21.44;98977.38;5086263;28;20055;-81
2022/09/15 09:44:10;;;;;;;11.70;1.85;;;;;;;24.67;21.18;98966.03;5079255;28;20047;-81
2022/09/15 09:46:36;;;;;;;9.55;1.67;;;;;;;25.09;21.33;98969.03;5086831;28;20040;-75
2022/09/15 09:49:22;;;;;;;11.02;1.50;;;;;;;25.54;20.48;98976.97;5093951;28;20570;-75
2022/09/15 09:51:51;;;;;;;7.95;2.70;;;;;;;25.78;20.15;98981.56;5093409;28;20040;-76
2022/09/15 09:54:19;;;;;;;17.77;1.85;;;;;;;25.76;19.95;98967.22;5094911;28;20055;-77
2022/09/15 09:56:49;;;;;;;12.68;2.30;;;;;;;25.68;19.99;98973.00;5093616;28;20050;-75
2022/09/15 09:59:39;;;;;;;7.43;1.88;;;;;;;25.77;19.97;98968.91;5093410;28;20491;-77
2022/09/15 10:02:14;;;;;;;6.88;1.60;;;;;;;25.92;19.58;98977.59;5076581;28;20077;-76
2022/09/15 10:04:54;;;;;;;7.70;1.48;;;;;;;26.21;19.73;98977.81;5060082;28;20040;-76
2022/09/15 10:07:24;;;;;;;11.25;1.40;;;;;;;26.58;19.31;98964.00;5095224;28;20036;-76
2022/09/15 10:09:53;;;;;;;7.13;1.60;;;;;;;26.64;19.37;98971.28;5093633;28;20044;-75
2022/09/15 10:12:23;;;;;;;29.67;2.45;;;;;;;27.16;19.13;98981.59;5095468;28;20032;-76
2022/09/15 10:14:53;;;;;;;17.73;1.63;;;;;;;27.04;18.63;98987.03;5060438;28;20069;-77
2022/09/15 10:17:26;;;;;;;9.70;1.52;;;;;;;26.70;19.15;98966.75;5094924;28;20048;-76
2022/09/15 10:19:55;;;;;;;12.65;1.58;;;;;;;26.82;19.34;98973.94;5094324;28;20040;-75
2022/09/15 10:22:31;;;;;;;;;;;;;;;27.46;19.11;98967.72;5095277;28;20060;-75
2022/09/15 10:24:59;;;;;;;5.18;1.23;;;;;;;28.00;18.36;98973.81;5076877;28;19927;-77
2022/09/15 10:27:28;;;;;;;7.43;1.52;;;;;;;27.93;18.02;98986.84;5095427;28;20046;-75
2022/09/15 10:29:57;;;;;;;9.50;1.15;;;;;;;26.72;18.68;98976.41;5094827;28;20040;-76
2022/09/15 10:32:26;;;;;;;15.77;1.40;;;;;;;25.88;19.62;98968.16;5093640;28;20093;-77
2022/09/15 10:35:17;;;;;;;11.73;1.65;;;;;;;25.30;20.15;98963.13;5094100;28;20109;-75
2022/09/15 10:38:10;;;;;;;18.13;1.42;;;;;;;25.01;20.04;98958.38;5076541;28;20044;-77
2022/09/15 10:41:05;;;;;;;12.55;1.83;;;;;;;24.82;20.62;98985.66;5094646;28;20063;-76
2022/09/15 10:43:48;;;;;;;17.77;2.33;;;;;;;24.53;21.54;98968.06;5093753;28;20125;-76
2022/09/15 10:46:26;;;;;;;6.43;1.38;;;;;;;24.54;21.27;98969.72;5076518;28;20495;-76
2022/09/15 10:49:04;;;;;;;6.78;1.42;;;;;;;24.25;21.39;98960.22;5076373;28;20055;-76
2022/09/15 10:51:57;;;;;;;3.93;1.33;;;;;;;24.24;21.25;98964.84;5076284;28;20043;-76
2022/09/15 10:54:46;;;;;;;9.70;1.50;;;;;;;23.96;21.74;98946.16;5076309;28;20047;-75
2022/09/15 10:57:31;;;;;;;2.15;1.08;;;;;;;24.24;21.69;98958.56;5093145;28;20039;-78
2022/09/15 11:00:07;;;;;;;9.60;1.42;;;;;;;24.34;21.54;98947.16;5074276;28;20044;-77
2022/09/15 11:03:24;;;;;;;5.35;1.23;;;;;;;24.69;21.71;98950.25;5109668;28;20245;-78
2022/09/15 11:06:33;;;;;;;7.40;1.40;;;;;;;25.21;21.00;98941.81;5078692;28;20050;-79
2022/09/15 11:09:11;;;;;;;4.57;1.35;;;;;;;24.99;21.35;98941.38;5078247;28;20040;-77
2022/09/15 11:12:23;;;;;;;8.07;1.50;;;;;;;24.85;21.88;98933.28;5112206;28;20050;-76
2022/09/15 11:14:51;;;;;;;5.20;1.42;;;;;;;24.75;21.49;98945.78;5083366;28;20093;-76
2022/09/15 11:17:23;;;;;;;3.88;1.55;;;;;;;25.21;21.10;98936.34;5095117;28;20508;-80
2022/09/15 11:20:17;;;;;;;9.25;1.58;;;;;;;25.07;20.97;98924.66;5112268;28;20051;-74
2022/09/15 11:22:54;;;;;;;12.20;1.30;;;;;;;24.71;21.12;98931.72;5111162;28;20039;-79
2022/09/15 11:25:24;;;;;;;9.32;1.63;;;;;;;24.65;21.57;98919.81;5111290;28;20055;-77
2022/09/15 11:28:11;;;;;;;5.40;1.52;;;;;;;24.88;21.48;98908.22;5076561;28;20387;-76
2022/09/15 11:30:49;;;;;;;3.05;1.17;;;;;;;24.53;21.61;98916.13;5106858;28;20206;-76
2022/09/15 11:33:48;;;;;;;5.05;1.60;;;;;;;24.65;21.60;98916.25;5072118;28;20112;-77
2022/09/15 11:36:31;;;;;;;7.07;1.30;;;;;;;24.60;21.81;98889.59;5072320;28;20055;-76
2022/09/15 11:39:11;;;;;;;7.72;1.80;;;;;;;24.59;22.34;98906.19;5090110;28;20040;-78
2022/09/15 11:42:19;;;;;;;7.97;1.90;;;;;;;24.85;21.80;98891.44;5089852;28;20048;-77
2022/09/15 11:44:46;;;;;;;5.27;2.27;;;;;;;24.86;21.87;98896.69;5071555;28;20048;-75
2022/09/15 11:47:35;;;;;;;6.00;2.20;;;;;;;24.47;22.29;98868.69;5072830;28;20073;-77
2022/09/15 11:50:15;;;;;;;9.35;1.95;;;;;;;24.21;22.50;98869.69;5089999;28;20479;-78
2022/09/15 11:53:11;;;;;;;3.83;1.40;;;;;;;24.09;22.77;98862.47;5073219;28;20056;-77